createdAt,value
2019-05-10T00:00:04.475Z,2.17
2019-05-10T00:02:50.968Z,1.73
2019-05-10T00:05:37.118Z,2.60
2019-05-10T00:08:23.557Z,2.33
2019-05-10T00:11:01.091Z,2.50
2019-05-10T00:13:30.266Z,2.90
2019-05-10T00:15:58.924Z,3.13
2019-05-10T00:18:26.516Z,2.47
2019-05-10T00:20:54.059Z,2.67
2019-05-10T00:23:21.444Z,3.63
2019-05-10T00:25:51.302Z,5.53
2019-05-10T00:28:18.066Z,2.27
2019-05-10T00:30:45.629Z,3.87
2019-05-10T00:33:12.783Z,3.37
2019-05-10T00:35:40.169Z,3.10
2019-05-10T00:38:07.435Z,2.07
2019-05-10T00:40:34.694Z,3.80
2019-05-10T00:43:01.954Z,3.17
2019-05-10T00:45:29.199Z,3.43
2019-05-10T00:47:56.462Z,4.43
2019-05-10T00:50:23.836Z,4.63
2019-05-10T00:52:52.255Z,2.70
2019-05-10T00:55:19.671Z,3.67
2019-05-10T00:57:46.884Z,2.60
2019-05-10T01:00:14.878Z,3.03
2019-05-10T01:02:42.127Z,3.07
2019-05-10T01:05:09.638Z,3.13
2019-05-10T01:07:36.987Z,2.50
2019-05-10T01:10:04.799Z,2.97
2019-05-10T01:12:31.960Z,3.57
2019-05-10T01:14:59.109Z,5.33
2019-05-10T01:17:26.647Z,3.40
2019-05-10T01:19:54.983Z,3.13
2019-05-10T01:22:22.402Z,2.53
2019-05-10T01:24:51.208Z,2.93
2019-05-10T01:27:18.672Z,3.67
2019-05-10T01:29:46.003Z,4.83
2019-05-10T01:32:13.772Z,2.67
2019-05-10T01:34:52.424Z,3.53
2019-05-10T01:37:19.786Z,5.20
2019-05-10T01:39:47.141Z,5.23
2019-05-10T01:42:14.378Z,5.70
2019-05-10T01:44:41.552Z,3.47
2019-05-10T01:47:08.800Z,3.30
2019-05-10T01:49:36.145Z,5.40
2019-05-10T01:52:04.350Z,4.17
2019-05-10T01:54:31.725Z,3.33
2019-05-10T01:56:58.975Z,4.53
2019-05-10T01:59:26.228Z,4.53
2019-05-10T02:01:53.473Z,6.93
2019-05-10T02:04:20.976Z,2.83
2019-05-10T02:06:48.318Z,5.03
2019-05-10T02:09:17.573Z,8.90
2019-05-10T02:11:47.702Z,5.13
2019-05-10T02:14:15.244Z,6.50
2019-05-10T02:16:42.670Z,4.73
2019-05-10T02:19:09.919Z,5.20
2019-05-10T02:21:37.274Z,4.37
2019-05-10T02:24:04.654Z,4.67
2019-05-10T02:26:31.928Z,4.30
2019-05-10T02:28:59.161Z,5.20
2019-05-10T02:31:26.313Z,4.17
2019-05-10T02:33:53.465Z,4.13
2019-05-10T02:36:20.746Z,3.87
2019-05-10T02:38:48.092Z,3.77
2019-05-10T02:41:15.729Z,4.33
2019-05-10T02:43:43.432Z,3.40
2019-05-10T02:46:10.907Z,4.30
2019-05-10T02:48:38.372Z,3.83
2019-05-10T02:51:05.926Z,3.67
2019-05-10T02:53:33.596Z,5.67
2019-05-10T02:56:02.627Z,5.23
2019-05-10T02:58:31.747Z,4.80
2019-05-10T03:01:01.835Z,7.13
2019-05-10T03:03:31.994Z,3.87
2019-05-10T03:06:01.933Z,3.00
2019-05-10T03:08:46.675Z,3.13
2019-05-10T03:11:14.413Z,4.50
2019-05-10T03:13:47.836Z,4.13
2019-05-10T03:16:18.893Z,4.33
2019-05-10T03:18:48.863Z,4.33
2019-05-10T03:21:17.830Z,4.33
2019-05-10T03:23:46.459Z,4.33
2019-05-10T03:26:13.918Z,5.47
2019-05-10T03:28:41.303Z,4.37
2019-05-10T03:31:08.857Z,4.57
2019-05-10T03:33:36.937Z,4.27
2019-05-10T03:36:09.465Z,7.13
2019-05-10T03:38:37.670Z,7.27
2019-05-10T03:41:05.369Z,7.50
2019-05-10T03:43:34.900Z,7.43
2019-05-10T03:46:02.907Z,7.57
2019-05-10T03:48:30.520Z,6.23
2019-05-10T03:50:57.868Z,8.97
2019-05-10T03:53:25.497Z,8.10
2019-05-10T03:55:52.839Z,9.57
2019-05-10T03:58:20.315Z,8.83
2019-05-10T04:00:47.673Z,6.57
2019-05-10T04:03:18.014Z,6.33
2019-05-10T04:05:45.292Z,8.87
2019-05-10T04:08:12.601Z,7.77
2019-05-10T04:10:42.502Z,10.10
2019-05-10T04:13:09.634Z,7.37
2019-05-10T04:15:36.915Z,9.93
2019-05-10T04:18:04.406Z,9.33
2019-05-10T04:20:31.816Z,11.17
2019-05-10T04:22:59.199Z,10.70
2019-05-10T04:25:26.395Z,10.93
2019-05-10T04:27:53.642Z,11.60
2019-05-10T04:30:23.105Z,10.93
2019-05-10T04:32:50.818Z,9.30
2019-05-10T04:35:21.316Z,10.97
2019-05-10T04:37:49.853Z,10.30
2019-05-10T04:40:17.333Z,12.90
2019-05-10T04:42:44.472Z,10.83
2019-05-10T04:45:13.122Z,13.10
2019-05-10T04:47:40.351Z,10.27
2019-05-10T04:50:07.947Z,14.83
2019-05-10T04:52:35.472Z,11.80
2019-05-10T04:55:03.593Z,11.87
2019-05-10T04:57:47.953Z,13.63
2019-05-10T05:00:00.132Z,10.20
2019-05-10T05:02:27.597Z,14.90
2019-05-10T05:04:54.870Z,12.20
2019-05-10T05:07:22.033Z,11.27
2019-05-10T05:09:49.758Z,12.67
2019-05-10T05:12:19.765Z,12.20
2019-05-10T05:14:47.099Z,17.83
2019-05-10T05:17:15.022Z,14.00
2019-05-10T05:19:42.532Z,15.70
2019-05-10T05:22:09.981Z,15.43
2019-05-10T05:24:40.466Z,15.67
2019-05-10T05:27:07.973Z,15.63
2019-05-10T05:29:35.275Z,13.93
2019-05-10T05:32:03.638Z,12.93
2019-05-10T05:34:31.060Z,14.13
2019-05-10T05:36:58.741Z,15.27
2019-05-10T05:39:25.839Z,9.43
2019-05-10T05:41:56.677Z,10.87
2019-05-10T05:44:26.143Z,13.73
2019-05-10T05:46:53.888Z,15.57
2019-05-10T05:49:21.040Z,23.47
2019-05-10T05:51:48.304Z,20.63
2019-05-10T05:54:20.831Z,18.37
2019-05-10T05:56:50.518Z,14.77
2019-05-10T05:59:17.490Z,10.43
2019-05-10T06:01:43.724Z,9.50
2019-05-10T06:04:12.824Z,8.23
2019-05-10T06:06:40.105Z,9.47
2019-05-10T06:09:07.708Z,8.70
2019-05-10T06:11:35.675Z,7.50
2019-05-10T06:14:10.917Z,9.83
2019-05-10T06:16:35.092Z,7.93
2019-05-10T06:19:02.590Z,7.90
2019-05-10T06:21:29.954Z,9.30
2019-05-10T06:23:59.426Z,5.73
2019-05-10T06:26:28.786Z,5.23
2019-05-10T06:28:59.418Z,7.07
2019-05-10T06:31:27.439Z,4.83
2019-05-10T06:33:54.765Z,5.50
2019-05-10T06:36:21.921Z,7.27
2019-05-10T06:38:49.188Z,6.27
2019-05-10T06:41:17.436Z,6.90
2019-05-10T06:43:51.254Z,5.43
2019-05-10T06:46:16.857Z,5.33
2019-05-10T06:48:46.524Z,4.77
2019-05-10T06:51:13.768Z,5.63
2019-05-10T06:53:48.846Z,5.27
2019-05-10T06:56:12.035Z,7.83
2019-05-10T06:58:39.673Z,6.47
2019-05-10T07:01:07.077Z,4.60
2019-05-10T07:03:34.332Z,3.53
2019-05-10T07:06:01.610Z,4.27
2019-05-10T07:08:44.375Z,5.17
2019-05-10T07:11:10.104Z,8.60
2019-05-10T07:13:40.512Z,4.23
2019-05-10T07:16:06.469Z,5.37
2019-05-10T07:18:33.727Z,5.00
2019-05-10T07:21:06.506Z,5.57
2019-05-10T07:23:32.237Z,5.07
2019-05-10T07:25:59.724Z,7.57
2019-05-10T07:28:29.673Z,5.17
2019-05-10T07:30:56.961Z,11.70
2019-05-10T07:33:24.436Z,5.77
2019-05-10T07:35:52.938Z,4.00
2019-05-10T07:38:23.549Z,4.83
2019-05-10T07:40:50.354Z,5.17
2019-05-10T07:43:24.847Z,4.03
2019-05-10T07:45:47.115Z,3.63
2019-05-10T07:48:14.473Z,4.37
2019-05-10T07:50:42.446Z,3.37
2019-05-10T07:53:16.180Z,7.90
2019-05-10T07:55:40.230Z,4.23
2019-05-10T07:58:11.130Z,6.37
2019-05-10T08:00:44.474Z,3.43
2019-05-10T08:03:15.986Z,4.10
2019-05-10T08:05:39.135Z,4.63
2019-05-10T08:08:06.571Z,3.50
2019-05-10T08:10:33.926Z,5.30
2019-05-10T08:13:03.592Z,4.40
2019-05-10T08:15:34.615Z,5.23
2019-05-10T08:17:59.503Z,4.53
2019-05-10T08:20:41.300Z,3.30
2019-05-10T08:22:56.058Z,4.13
2019-05-10T08:25:29.324Z,3.80
2019-05-10T08:27:55.259Z,3.20
2019-05-10T08:30:51.705Z,3.53
2019-05-10T08:33:14.379Z,3.10
2019-05-10T08:35:46.452Z,2.93
2019-05-10T08:38:14.320Z,3.47
2019-05-10T08:40:42.748Z,3.87
2019-05-10T08:43:15.485Z,5.07
2019-05-10T08:45:45.179Z,3.17
2019-05-10T08:48:12.691Z,4.77
2019-05-10T08:50:50.704Z,2.67
2019-05-10T08:53:10.764Z,3.20
2019-05-10T08:55:43.263Z,3.73
2019-05-10T08:58:12.416Z,4.10
2019-05-10T09:00:50.646Z,3.70
2019-05-10T09:03:11.972Z,4.87
2019-05-10T09:05:40.038Z,3.93
2019-05-10T09:08:13.591Z,2.83
2019-05-10T09:10:37.283Z,1.83
2019-05-10T09:13:04.867Z,2.43
2019-05-10T09:15:34.578Z,4.80
2019-05-10T09:18:05.904Z,2.40
2019-05-10T09:20:33.994Z,2.10
2019-05-10T09:23:02.430Z,4.37
2019-05-10T09:25:33.812Z,2.00
2019-05-10T09:28:10.680Z,4.53
2019-05-10T09:30:35.653Z,3.13
2019-05-10T09:33:08.523Z,2.27
2019-05-10T09:35:51.205Z,3.53
2019-05-10T09:38:15.534Z,1.87
2019-05-10T09:40:51.034Z,2.67
2019-05-10T09:43:15.151Z,2.70
2019-05-10T09:45:42.911Z,3.13
2019-05-10T09:48:12.083Z,3.00
2019-05-10T09:50:44.327Z,3.43
2019-05-10T09:53:10.432Z,1.83
2019-05-10T09:55:38.110Z,2.33
2019-05-10T09:58:05.378Z,4.27
2019-05-10T10:00:37.692Z,4.40
2019-05-10T10:03:08.086Z,1.20
2019-05-10T10:05:34.844Z,1.93
2019-05-10T10:08:03.564Z,2.10
2019-05-10T10:10:32.552Z,4.27
2019-05-10T10:13:08.470Z,1.33
2019-05-10T10:15:34.108Z,1.83
2019-05-10T10:18:00.586Z,3.40
2019-05-10T10:20:30.075Z,4.17
2019-05-10T10:22:57.447Z,3.10
2019-05-10T10:25:27.747Z,2.80
2019-05-10T10:28:00.794Z,2.37
2019-05-10T10:30:31.284Z,2.13
2019-05-10T10:32:58.117Z,2.63
2019-05-10T10:35:29.907Z,2.00
2019-05-10T10:38:02.209Z,2.10
2019-05-10T10:40:27.887Z,2.03
2019-05-10T10:42:57.778Z,1.10
2019-05-10T10:45:27.585Z,3.50
2019-05-10T10:47:57.122Z,1.30
2019-05-10T10:50:27.364Z,1.13
2019-05-10T10:52:57.347Z,1.63
2019-05-10T10:55:30.555Z,1.63
2019-05-10T10:57:53.923Z,1.20
2019-05-10T11:00:32.799Z,2.20
2019-05-10T11:03:01.793Z,3.23
2019-05-10T11:05:29.189Z,2.93
2019-05-10T11:07:56.468Z,1.67
2019-05-10T11:10:31.029Z,1.07
2019-05-10T11:13:02.851Z,3.43
2019-05-10T11:15:35.612Z,1.60
2019-05-10T11:18:00.411Z,2.53
2019-05-10T11:20:31.904Z,2.80
2019-05-10T11:22:59.465Z,2.40
2019-05-10T11:25:26.994Z,1.23
2019-05-10T11:27:58.543Z,0.63
2019-05-10T11:30:23.671Z,1.77
2019-05-10T11:32:51.045Z,1.43
2019-05-10T11:35:28.473Z,3.60
2019-05-10T11:37:53.151Z,2.67
2019-05-10T11:40:30.553Z,1.90
2019-05-10T11:42:51.101Z,2.37
2019-05-10T11:45:20.896Z,1.50
2019-05-10T11:47:52.685Z,1.97
2019-05-10T11:50:28.820Z,0.73
2019-05-10T11:52:51.522Z,2.30
2019-05-10T11:58:02.036Z,1.30
2019-05-10T11:59:04.832Z,3.10
2019-05-10T12:00:29.142Z,0.90
2019-05-10T12:03:06.871Z,3.50
2019-05-10T12:05:26.319Z,2.53
2019-05-10T12:07:54.162Z,1.43
2019-05-10T12:10:25.756Z,0.60
2019-05-10T12:13:06.594Z,1.17
2019-05-10T12:15:25.423Z,2.30
2019-05-10T12:17:58.524Z,2.53
2019-05-10T12:20:30.250Z,3.60
2019-05-10T12:22:51.823Z,0.93
2019-05-10T12:26:21.452Z,0.93
2019-05-10T12:27:49.909Z,2.13
2019-05-10T12:30:18.670Z,1.27
2019-05-10T12:32:55.611Z,3.50
2019-05-10T12:35:15.406Z,1.13
2019-05-10T12:37:46.457Z,1.13
2019-05-10T12:40:15.210Z,1.90
2019-05-10T12:42:42.718Z,0.67
2019-05-10T12:45:10.356Z,1.93
2019-05-10T12:47:37.805Z,3.80
2019-05-10T12:50:06.373Z,2.77
2019-05-10T12:52:33.830Z,1.10
2019-05-10T12:55:01.495Z,1.03
2019-05-10T12:57:28.968Z,3.37
2019-05-10T12:59:57.267Z,2.63
2019-05-10T13:02:24.732Z,1.57
2019-05-10T13:04:52.379Z,4.13
2019-05-10T13:07:36.687Z,0.80
2019-05-10T13:10:06.502Z,2.37
2019-05-10T13:12:37.058Z,1.53
2019-05-10T13:15:04.570Z,0.77
2019-05-10T13:17:32.001Z,0.80
2019-05-10T13:20:01.192Z,1.10
2019-05-10T13:22:36.685Z,1.23
2019-05-10T13:24:58.685Z,3.13
2019-05-10T13:27:26.057Z,4.80
2019-05-10T13:29:53.928Z,7.37
2019-05-10T13:32:22.382Z,1.23
2019-05-10T13:34:49.905Z,2.10
2019-05-10T13:37:23.193Z,1.70
2019-05-10T13:39:46.270Z,3.00
2019-05-10T13:42:13.475Z,6.30
2019-05-10T13:44:42.912Z,4.67
2019-05-10T13:47:10.275Z,4.40
2019-05-10T13:49:43.896Z,3.37
2019-05-10T13:52:11.507Z,2.73
2019-05-10T13:54:38.850Z,1.10
2019-05-10T13:57:06.247Z,1.07
2019-05-10T13:59:37.174Z,0.90
2019-05-10T14:02:04.664Z,1.40
2019-05-10T14:04:33.923Z,2.57
2019-05-10T14:07:01.275Z,1.33
2019-05-10T14:09:28.466Z,3.27
2019-05-10T14:11:55.863Z,1.93
2019-05-10T14:14:26.584Z,1.83
2019-05-10T14:16:52.658Z,1.53
2019-05-10T14:19:22.840Z,2.03
2019-05-10T14:21:50.476Z,1.50
2019-05-10T14:24:17.714Z,3.23
2019-05-10T14:26:45.035Z,1.87
2019-05-10T14:29:12.278Z,2.27
2019-05-10T14:31:39.680Z,1.47
2019-05-10T14:34:15.525Z,2.77
2019-05-10T14:36:41.029Z,1.10
2019-05-10T14:39:06.475Z,2.23
2019-05-10T14:41:39.650Z,3.47
2019-05-10T14:44:05.784Z,1.90
2019-05-10T14:46:33.362Z,1.97
2019-05-10T14:49:09.605Z,1.10
2019-05-10T14:51:49.393Z,1.37
2019-05-10T14:54:06.512Z,0.70
2019-05-10T14:56:31.490Z,0.80
2019-05-10T14:59:00.926Z,3.50
2019-05-10T15:01:28.363Z,1.43
2019-05-10T15:03:55.694Z,0.70
2019-05-10T15:06:30.685Z,1.40
2019-05-10T15:08:58.212Z,1.70
2019-05-10T15:11:26.478Z,2.03
2019-05-10T15:13:54.724Z,1.87
2019-05-10T15:16:27.228Z,2.33
2019-05-10T15:18:53.982Z,1.23
2019-05-10T15:21:21.536Z,1.80
2019-05-10T15:23:49.963Z,1.47
2019-05-10T15:26:17.259Z,1.57
2019-05-10T15:28:44.641Z,1.00
2019-05-10T15:31:12.211Z,0.97
2019-05-10T15:33:39.655Z,1.80
2019-05-10T15:36:12.490Z,0.80
2019-05-10T15:38:49.876Z,1.80
2019-05-10T15:41:09.162Z,2.37
2019-05-10T15:43:36.692Z,1.97
2019-05-10T15:46:07.334Z,2.27
2019-05-10T15:48:36.657Z,1.83
2019-05-10T15:51:04.455Z,0.93
2019-05-10T15:53:32.066Z,1.43
2019-05-10T15:56:03.984Z,1.47
2019-05-10T15:58:30.564Z,1.87
2019-05-10T16:00:58.230Z,1.93
2019-05-10T16:03:27.307Z,1.97
2019-05-10T16:06:00.829Z,1.13
2019-05-10T16:08:30.386Z,0.93
2019-05-10T16:10:55.640Z,0.97
2019-05-10T16:13:31.817Z,2.40
2019-05-10T16:15:59.578Z,5.47
2019-05-10T16:18:33.295Z,0.90
2019-05-10T16:20:59.943Z,3.20
2019-05-10T16:23:27.196Z,0.83
2019-05-10T16:25:54.480Z,1.30
2019-05-10T16:28:22.989Z,2.43
2019-05-10T16:30:50.661Z,3.27
2019-05-10T16:33:18.233Z,2.00
2019-05-10T16:35:49.683Z,1.07
2019-05-10T16:38:15.092Z,1.07
2019-05-10T16:40:44.631Z,2.13
2019-05-10T16:43:13.957Z,1.80
2019-05-10T16:45:40.846Z,3.33
2019-05-10T16:48:08.111Z,2.23
2019-05-10T16:50:37.153Z,1.83
2019-05-10T16:53:06.248Z,0.97
2019-05-10T16:55:35.589Z,1.37
2019-05-10T16:58:03.756Z,1.00
2019-05-10T17:00:31.192Z,1.93
2019-05-10T17:02:58.425Z,1.00
2019-05-10T17:05:25.728Z,2.67
2019-05-10T17:07:53.671Z,1.57
2019-05-10T17:10:26.975Z,2.10
2019-05-10T17:12:51.512Z,1.80
2019-05-10T17:15:19.091Z,2.63
2019-05-10T17:17:52.305Z,0.80
2019-05-10T17:20:27.869Z,3.13
2019-05-10T17:22:55.165Z,4.00
2019-05-10T17:25:22.825Z,0.70
2019-05-10T17:27:56.785Z,1.07
2019-05-10T17:30:21.790Z,0.90
2019-05-10T17:32:51.689Z,2.57
2019-05-10T17:35:18.956Z,0.77
2019-05-10T17:37:46.759Z,2.67
2019-05-10T17:40:16.447Z,1.33
2019-05-10T17:42:47.543Z,3.97
2019-05-10T17:45:15.224Z,2.17
2019-05-10T17:47:42.471Z,2.57
2019-05-10T17:50:10.758Z,3.00
2019-05-10T17:52:38.255Z,1.40
2019-05-10T17:55:16.528Z,3.23
2019-05-10T17:57:39.616Z,2.83
2019-05-10T18:00:09.510Z,1.60
2019-05-10T18:02:47.850Z,1.00
2019-05-10T18:05:15.697Z,2.13
2019-05-10T18:07:42.880Z,1.73
2019-05-10T18:10:11.136Z,2.07
2019-05-10T18:12:39.577Z,1.20
2019-05-10T18:15:10.478Z,3.37
2019-05-10T18:17:37.867Z,2.17
2019-05-10T18:20:09.767Z,3.17
2019-05-10T18:22:47.274Z,1.97
2019-05-10T18:25:30.378Z,2.17
2019-05-10T18:28:05.118Z,1.60
2019-05-10T18:30:33.700Z,1.03
2019-05-10T18:33:06.567Z,1.43
2019-05-10T18:35:34.334Z,1.97
2019-05-10T18:38:07.005Z,1.80
2019-05-10T18:40:34.358Z,1.77
2019-05-10T18:43:03.838Z,1.17
2019-05-10T18:45:31.140Z,1.20
2019-05-10T18:47:58.417Z,1.03
2019-05-10T18:50:25.860Z,1.30
2019-05-10T18:52:53.561Z,1.47
2019-05-10T18:55:20.869Z,2.60
2019-05-10T18:57:50.502Z,0.93
2019-05-10T19:00:23.076Z,1.77
2019-05-10T19:02:55.338Z,1.30
2019-05-10T19:05:24.933Z,1.20
2019-05-10T19:08:02.584Z,3.03
2019-05-10T19:10:19.450Z,1.90
2019-05-10T19:12:59.946Z,2.20
2019-05-10T19:15:19.332Z,1.92
2019-05-10T19:17:47.310Z,4.30
2019-05-10T19:20:16.357Z,2.43
2019-05-10T19:22:44.412Z,3.03
2019-05-10T19:25:14.502Z,2.47
2019-05-10T19:27:44.651Z,1.50
2019-05-10T19:30:20.206Z,1.43
2019-05-10T19:32:43.836Z,2.27
2019-05-10T19:35:12.206Z,3.83
2019-05-10T19:37:39.563Z,1.87
2019-05-10T19:40:07.978Z,2.90
2019-05-10T19:42:37.332Z,3.20
2019-05-10T19:45:12.821Z,3.33
2019-05-10T19:47:44.659Z,4.53
2019-05-10T19:50:14.689Z,6.47
2019-05-10T19:52:42.577Z,5.10
2019-05-10T19:55:13.168Z,6.33
2019-05-10T19:57:39.541Z,3.40
2019-05-10T20:00:08.506Z,2.83
2019-05-10T20:02:35.992Z,1.63
2019-05-10T20:05:03.750Z,2.20
2019-05-10T20:07:44.386Z,2.43
2019-05-10T20:10:00.161Z,2.87
2019-05-10T20:12:27.842Z,4.33
2019-05-10T20:14:55.339Z,2.43
2019-05-10T20:17:22.976Z,2.30
2019-05-10T20:19:53.356Z,2.27
2019-05-10T20:22:20.559Z,2.77
2019-05-10T20:24:48.138Z,3.37
2019-05-10T20:27:15.403Z,3.70
2019-05-10T20:29:42.742Z,2.97
2019-05-10T20:32:13.088Z,2.40
2019-05-10T20:34:40.490Z,3.90
2019-05-10T20:37:08.080Z,3.27
2019-05-10T20:39:35.811Z,3.17
2019-05-10T20:42:03.266Z,4.37
2019-05-10T20:44:30.814Z,3.70
2019-05-10T20:46:58.331Z,2.20
2019-05-10T20:49:25.614Z,2.63
2019-05-10T20:51:52.963Z,3.03
2019-05-10T20:54:20.672Z,2.30
2019-05-10T20:56:47.819Z,3.70
2019-05-10T20:59:15.145Z,3.20
2019-05-10T21:01:42.407Z,4.93
2019-05-10T21:04:09.764Z,2.90
2019-05-10T21:06:36.917Z,3.90
2019-05-10T21:09:05.526Z,4.57
2019-05-10T21:11:32.940Z,4.43
2019-05-10T21:14:00.307Z,5.00
2019-05-10T21:16:27.587Z,4.93
2019-05-10T21:18:54.774Z,5.60
2019-05-10T21:21:22.053Z,5.57
2019-05-10T21:23:49.213Z,3.63
2019-05-10T21:26:21.900Z,3.77
2019-05-10T21:28:49.037Z,3.87
2019-05-10T21:31:16.221Z,3.23
2019-05-10T21:33:43.605Z,5.40
2019-05-10T21:36:10.972Z,3.27
2019-05-10T21:38:41.532Z,4.73
2019-05-10T21:41:07.277Z,4.07
2019-05-10T21:43:34.445Z,4.03
2019-05-10T21:46:01.829Z,4.53
2019-05-10T21:48:29.689Z,4.37
2019-05-10T21:50:56.955Z,4.77
2019-05-10T21:53:24.274Z,4.50
2019-05-10T21:55:51.438Z,4.93
2019-05-10T21:58:18.627Z,5.47
2019-05-10T22:00:50.232Z,5.20
2019-05-10T22:03:18.206Z,4.33
2019-05-10T22:05:45.708Z,4.37
2019-05-10T22:08:13.214Z,3.57
2019-05-10T22:10:40.765Z,5.83
2019-05-10T22:13:08.715Z,3.27
2019-05-10T22:15:36.097Z,4.70
2019-05-10T22:18:03.669Z,5.20
2019-05-10T22:20:31.636Z,3.80
2019-05-10T22:22:58.881Z,4.63
2019-05-10T22:25:26.221Z,4.40
2019-05-10T22:27:53.462Z,4.03
2019-05-10T22:30:21.467Z,3.60
2019-05-10T22:32:48.886Z,3.30
2019-05-10T22:35:16.371Z,3.47
2019-05-10T22:37:43.680Z,4.60
2019-05-10T22:40:11.356Z,6.47
2019-05-10T22:42:38.800Z,10.17
2019-05-10T22:45:06.667Z,7.60
2019-05-10T22:47:34.632Z,10.87
2019-05-10T22:50:02.399Z,7.00
2019-05-10T22:52:29.655Z,10.27
2019-05-10T22:55:00.330Z,6.57
2019-05-10T22:57:27.922Z,6.00
2019-05-10T22:59:55.066Z,8.87
2019-05-10T23:02:22.223Z,9.97
2019-05-10T23:04:49.391Z,14.67
2019-05-10T23:07:18.650Z,14.33
2019-05-10T23:09:45.814Z,18.20
2019-05-10T23:12:13.168Z,11.87
2019-05-10T23:14:40.417Z,8.80
2019-05-10T23:17:07.853Z,7.03
2019-05-10T23:19:35.178Z,6.30
2019-05-10T23:22:05.131Z,6.07
2019-05-10T23:24:38.159Z,5.27
2019-05-10T23:27:05.799Z,5.30
2019-05-10T23:29:33.830Z,6.03
2019-05-10T23:32:01.309Z,8.57
2019-05-10T23:34:32.172Z,5.50
2019-05-10T23:37:01.554Z,6.27
2019-05-10T23:39:40.145Z,7.43
2019-05-10T23:41:58.484Z,7.83
2019-05-10T23:44:26.060Z,8.47
2019-05-10T23:46:53.450Z,7.03
2019-05-10T23:49:22.725Z,7.07
2019-05-10T23:51:50.241Z,7.17
2019-05-10T23:54:17.521Z,8.57
2019-05-10T23:56:44.873Z,6.07
2019-05-10T23:59:12.146Z,7.30
